createdAt,value
2022-12-15T00:01:26.409Z,15.50
2022-12-15T00:04:47.449Z,15.70
2022-12-15T00:08:08.501Z,15.80
2022-12-15T00:11:29.562Z,15.50
2022-12-15T00:14:50.042Z,15.80
2022-12-15T00:18:11.011Z,16.10
2022-12-15T00:21:31.324Z,15.80
2022-12-15T00:24:52.598Z,16.00
2022-12-15T00:28:15.936Z,15.80
2022-12-15T00:31:36.887Z,15.90
2022-12-15T00:34:57.644Z,15.90
2022-12-15T00:38:29.227Z,16.00
2022-12-15T00:41:31.148Z,16.00
2022-12-15T00:44:33.602Z,16.30
2022-12-15T00:47:36.420Z,16.60
2022-12-15T00:50:53.921Z,16.60
2022-12-15T00:54:17.996Z,16.70
2022-12-15T00:57:39.066Z,16.80
2022-12-15T01:00:59.482Z,16.80
2022-12-15T01:04:20.353Z,16.80
2022-12-15T01:07:41.085Z,16.80
2022-12-15T01:11:02.018Z,16.90
2022-12-15T01:14:22.529Z,17.00
2022-12-15T01:17:43.562Z,16.80
2022-12-15T01:20:45.461Z,16.90
2022-12-15T01:23:47.678Z,16.80
2022-12-15T01:26:49.563Z,16.80
2022-12-15T01:29:51.711Z,16.60
2022-12-15T01:32:53.776Z,16.50
2022-12-15T01:36:00.231Z,16.30
2022-12-15T01:39:02.372Z,15.90
2022-12-15T01:42:04.606Z,16.30
2022-12-15T01:45:26.711Z,16.50
2022-12-15T01:48:39.441Z,16.00
2022-12-15T01:51:47.223Z,16.10
2022-12-15T01:54:54.249Z,16.20
2022-12-15T01:58:02.559Z,16.60
2022-12-15T02:01:05.149Z,16.60
2022-12-15T02:04:07.248Z,16.80
2022-12-15T02:07:17.058Z,15.70
2022-12-15T02:10:19.207Z,15.90
2022-12-15T02:13:44.999Z,16.10
2022-12-15T02:17:17.751Z,15.70
2022-12-15T02:20:41.948Z,15.70
2022-12-15T02:23:46.896Z,15.50
2022-12-15T02:26:57.430Z,15.50
2022-12-15T02:30:14.206Z,15.40
2022-12-15T02:33:28.204Z,15.40
2022-12-15T02:36:37.353Z,15.90
2022-12-15T02:39:39.678Z,15.30
2022-12-15T02:42:50.214Z,15.60
2022-12-15T02:46:01.559Z,15.60
2022-12-15T02:49:17.819Z,15.90
2022-12-15T02:52:50.853Z,15.90
2022-12-15T02:56:00.759Z,15.60
2022-12-15T02:59:25.247Z,15.50
2022-12-15T03:02:30.538Z,15.50
2022-12-15T03:05:33.108Z,15.50
2022-12-15T03:08:34.987Z,15.30
2022-12-15T03:11:37.371Z,15.00
2022-12-15T03:14:39.292Z,15.20
2022-12-15T03:17:41.815Z,15.00
2022-12-15T03:20:43.753Z,15.30
2022-12-15T03:23:45.945Z,15.50
2022-12-15T03:26:50.153Z,15.30
2022-12-15T03:29:52.492Z,15.00
2022-12-15T03:32:54.389Z,15.10
2022-12-15T03:35:56.643Z,15.40
2022-12-15T03:38:58.571Z,15.50
2022-12-15T03:42:00.959Z,15.50
2022-12-15T03:45:03.269Z,15.50
2022-12-15T03:48:05.542Z,15.70
2022-12-15T03:51:07.435Z,15.40
2022-12-15T03:54:09.555Z,15.20
2022-12-15T03:57:11.465Z,14.90
2022-12-15T04:00:15.165Z,14.90
2022-12-15T04:03:17.184Z,15.00
2022-12-15T04:06:19.659Z,14.90
2022-12-15T04:09:21.799Z,15.20
2022-12-15T04:12:24.001Z,15.30
2022-12-15T04:15:26.928Z,15.40
2022-12-15T04:18:29.166Z,15.30
2022-12-15T04:21:31.126Z,15.20
2022-12-15T04:24:54.717Z,15.10
2022-12-15T04:28:15.750Z,15.10
2022-12-15T04:31:42.246Z,15.00
2022-12-15T04:35:02.590Z,15.60
2022-12-15T04:38:23.589Z,15.30
2022-12-15T04:41:44.658Z,15.20
2022-12-15T04:45:07.761Z,15.30
2022-12-15T04:48:28.947Z,15.20
2022-12-15T04:51:51.999Z,15.30
2022-12-15T04:55:12.358Z,15.30
2022-12-15T04:58:33.151Z,15.40
2022-12-15T05:01:53.758Z,15.40
2022-12-15T05:05:14.488Z,15.20
2022-12-15T05:08:35.044Z,14.90
2022-12-15T05:11:56.579Z,14.90
2022-12-15T05:15:16.985Z,15.40
2022-12-15T05:18:38.789Z,15.20
2022-12-15T05:21:59.087Z,15.20
2022-12-15T05:25:20.170Z,15.10
2022-12-15T05:28:40.624Z,15.10
2022-12-15T05:31:52.245Z,15.20
2022-12-15T05:34:54.297Z,15.00
2022-12-15T05:37:56.451Z,14.60
2022-12-15T05:40:59.760Z,15.00
2022-12-15T05:44:01.948Z,15.20
2022-12-15T05:47:04.831Z,14.90
2022-12-15T05:50:07.755Z,14.90
2022-12-15T05:53:09.701Z,15.10
2022-12-15T05:56:13.928Z,15.20
2022-12-15T05:59:16.058Z,15.00
2022-12-15T06:02:18.312Z,15.20
2022-12-15T06:05:20.290Z,15.10
2022-12-15T06:08:24.015Z,14.90
2022-12-15T06:11:27.114Z,14.80
2022-12-15T06:14:31.857Z,15.10
2022-12-15T06:17:33.905Z,15.00
2022-12-15T06:20:36.170Z,15.20
2022-12-15T06:23:39.406Z,15.10
2022-12-15T06:26:41.838Z,15.00
2022-12-15T06:29:45.182Z,15.70
2022-12-15T06:32:49.899Z,15.10
2022-12-15T06:35:52.229Z,15.20
2022-12-15T06:38:54.547Z,15.00
2022-12-15T06:41:56.448Z,14.90
2022-12-15T06:44:58.653Z,14.80
2022-12-15T06:48:01.668Z,14.90
2022-12-15T06:51:06.335Z,14.80
2022-12-15T06:54:11.195Z,14.80
2022-12-15T06:57:13.483Z,14.80
2022-12-15T07:00:16.039Z,14.60
2022-12-15T07:03:20.051Z,14.60
2022-12-15T07:06:22.208Z,14.90
2022-12-15T07:09:26.235Z,14.70
2022-12-15T07:12:28.165Z,14.60
2022-12-15T07:15:31.630Z,14.70
2022-12-15T07:18:33.622Z,14.90
2022-12-15T07:21:36.305Z,14.60
2022-12-15T07:24:38.222Z,14.70
2022-12-15T07:27:43.441Z,14.90
2022-12-15T07:30:45.724Z,14.90
2022-12-15T07:33:48.483Z,14.90
2022-12-15T07:36:52.792Z,14.90
2022-12-15T07:39:55.174Z,14.90
2022-12-15T07:42:57.351Z,14.90
2022-12-15T07:46:00.153Z,14.90
2022-12-15T07:49:02.166Z,15.10
2022-12-15T07:52:04.530Z,15.10
2022-12-15T07:55:07.017Z,15.20
2022-12-15T07:58:09.264Z,15.40
2022-12-15T08:01:12.767Z,15.70
2022-12-15T08:04:15.786Z,15.70
2022-12-15T08:07:17.715Z,15.90
2022-12-15T08:10:19.916Z,16.00
2022-12-15T08:13:52.966Z,16.10
2022-12-15T08:16:45.398Z,16.10
2022-12-15T08:19:47.342Z,16.10
2022-12-15T08:22:51.338Z,16.20
2022-12-15T08:25:53.298Z,16.20
2022-12-15T08:28:55.496Z,16.30
2022-12-15T08:31:57.510Z,16.60
2022-12-15T08:34:59.837Z,16.80
2022-12-15T08:38:05.582Z,16.60
2022-12-15T08:41:17.102Z,16.70
2022-12-15T08:44:18.993Z,16.70
2022-12-15T08:47:21.133Z,16.80
2022-12-15T08:50:23.004Z,16.80
2022-12-15T08:53:33.318Z,16.80
2022-12-15T08:56:35.864Z,16.90
2022-12-15T08:59:38.114Z,17.20
2022-12-15T09:02:40.107Z,17.40
2022-12-15T09:05:42.322Z,17.50
2022-12-15T09:08:44.628Z,17.50
2022-12-15T09:11:50.773Z,17.50
2022-12-15T09:14:53.111Z,17.50
2022-12-15T09:17:55.354Z,17.50
2022-12-15T09:21:02.786Z,17.50
2022-12-15T09:24:05.445Z,17.70
2022-12-15T09:27:07.559Z,17.70
2022-12-15T09:30:10.291Z,17.80
2022-12-15T09:33:12.626Z,17.70
2022-12-15T09:36:15.182Z,17.90
2022-12-15T09:39:17.243Z,17.80
2022-12-15T09:42:24.989Z,17.70
2022-12-15T09:45:36.644Z,17.70
2022-12-15T09:48:42.138Z,17.80
2022-12-15T09:51:51.686Z,17.60
2022-12-15T09:54:54.059Z,17.60
2022-12-15T09:58:06.039Z,17.60
2022-12-15T10:01:17.763Z,17.70
2022-12-15T10:04:56.119Z,17.70
2022-12-15T10:07:59.846Z,17.70
2022-12-15T10:11:25.400Z,17.70
2022-12-15T10:15:06.459Z,17.80
2022-12-15T10:18:35.384Z,17.90
2022-12-15T10:21:37.825Z,18.00
2022-12-15T10:28:25.318Z,17.90
2022-12-15T10:31:55.475Z,17.90
2022-12-15T10:34:57.720Z,17.70
2022-12-15T10:38:06.138Z,17.70
2022-12-15T10:41:14.247Z,17.80
2022-12-15T10:44:31.834Z,17.90
2022-12-15T10:47:34.458Z,18.00
2022-12-15T10:50:36.983Z,18.00
2022-12-15T10:53:44.116Z,18.00
2022-12-15T10:57:02.706Z,18.10
2022-12-15T11:00:14.829Z,18.10
2022-12-15T11:03:26.959Z,18.10
2022-12-15T11:06:34.189Z,18.20
2022-12-15T11:09:38.800Z,18.20
2022-12-15T11:12:58.395Z,18.20
2022-12-15T11:16:17.886Z,18.00
2022-12-15T11:20:02.753Z,18.10
2022-12-15T11:23:18.648Z,18.20
2022-12-15T11:26:53.060Z,18.10
2022-12-15T11:30:00.360Z,18.20
2022-12-15T11:33:03.186Z,18.10
2022-12-15T11:36:32.879Z,18.10
2022-12-15T11:39:56.539Z,18.10
2022-12-15T11:43:40.182Z,18.20
2022-12-15T11:47:17.846Z,18.40
2022-12-15T11:50:44.015Z,18.50
2022-12-15T11:53:54.348Z,18.50
2022-12-15T11:57:03.051Z,18.50
2022-12-15T12:00:15.323Z,18.40
2022-12-15T12:03:45.311Z,18.20
2022-12-15T12:06:55.340Z,18.20
2022-12-15T12:10:03.198Z,18.50
2022-12-15T12:13:28.114Z,18.60
2022-12-15T12:16:56.764Z,18.20
2022-12-15T12:20:07.865Z,18.20
2022-12-15T12:23:29.743Z,18.50
2022-12-15T12:26:35.005Z,18.40
2022-12-15T12:29:48.791Z,18.40
2022-12-15T12:33:11.462Z,18.40
2022-12-15T12:36:15.591Z,18.60
2022-12-15T12:39:23.465Z,18.50
2022-12-15T12:42:42.554Z,18.60
2022-12-15T12:46:06.769Z,18.50
2022-12-15T12:49:26.905Z,18.70
2022-12-15T12:52:35.521Z,18.80
2022-12-15T12:55:50.129Z,18.80
2022-12-15T12:58:57.817Z,18.50
2022-12-15T13:02:15.691Z,18.80
2022-12-15T13:05:31.364Z,18.80
2022-12-15T13:08:56.069Z,18.60
2022-12-15T13:12:14.843Z,18.50
2022-12-15T13:15:43.493Z,18.50
2022-12-15T13:19:08.506Z,18.50
2022-12-15T13:22:35.890Z,18.70
2022-12-15T13:25:51.951Z,18.80
2022-12-15T13:28:57.292Z,18.50
2022-12-15T13:31:59.735Z,18.10
2022-12-15T13:35:17.383Z,18.00
2022-12-15T13:38:19.731Z,18.10
2022-12-15T13:41:26.637Z,18.20
2022-12-15T13:44:35.116Z,18.40
2022-12-15T13:47:38.101Z,18.40
2022-12-15T13:51:15.009Z,18.10
2022-12-15T13:54:23.283Z,18.30
2022-12-15T13:58:01.447Z,18.30
2022-12-15T14:03:04.488Z,18.20
2022-12-15T14:05:22.797Z,18.10
2022-12-15T14:08:28.666Z,17.90
2022-12-15T14:11:52.883Z,17.70
2022-12-15T14:14:57.301Z,17.70
2022-12-15T14:18:01.311Z,17.70
2022-12-15T14:21:22.642Z,17.70
2022-12-15T14:24:50.772Z,17.80
2022-12-15T14:28:05.480Z,17.70
2022-12-15T14:31:24.458Z,17.70
2022-12-15T14:34:32.380Z,17.70
2022-12-15T14:37:35.004Z,17.70
2022-12-15T14:40:44.116Z,17.80
2022-12-15T14:44:32.193Z,17.80
2022-12-15T14:47:34.464Z,17.80
2022-12-15T14:50:36.864Z,17.90
2022-12-15T14:53:41.900Z,17.80
2022-12-15T14:56:43.948Z,17.80
2022-12-15T14:59:48.558Z,17.80
2022-12-15T15:02:50.536Z,17.70
2022-12-15T15:06:04.861Z,17.70
2022-12-15T15:09:15.930Z,17.90
2022-12-15T15:12:20.811Z,17.90
2022-12-15T15:15:26.526Z,17.80
2022-12-15T15:18:30.042Z,17.90
2022-12-15T15:21:38.974Z,17.80
2022-12-15T15:24:41.188Z,17.80
2022-12-15T15:27:44.289Z,17.90
2022-12-15T15:30:49.206Z,18.00
2022-12-15T15:33:52.846Z,18.00
2022-12-15T15:36:55.137Z,18.10
2022-12-15T15:39:57.007Z,18.10
2022-12-15T15:42:59.943Z,18.10
2022-12-15T15:46:16.646Z,18.10
2022-12-15T15:49:21.777Z,18.20
2022-12-15T15:52:24.014Z,18.20
2022-12-15T15:55:36.260Z,18.20
2022-12-15T15:58:42.868Z,18.10
2022-12-15T16:01:47.042Z,18.30
2022-12-15T16:04:49.092Z,18.30
2022-12-15T16:07:51.396Z,18.30
2022-12-15T16:10:58.972Z,18.30
2022-12-15T16:14:01.614Z,18.30
2022-12-15T16:17:03.568Z,18.20
2022-12-15T16:20:06.681Z,18.30
2022-12-15T16:23:18.842Z,18.30
2022-12-15T16:26:43.218Z,18.30
2022-12-15T16:29:45.214Z,18.30
2022-12-15T16:32:47.516Z,18.20
2022-12-15T16:35:51.025Z,18.10
2022-12-15T16:38:54.122Z,18.40
2022-12-15T16:41:56.488Z,18.40
2022-12-15T16:44:58.675Z,18.40
2022-12-15T16:48:00.613Z,18.40
2022-12-15T16:51:09.381Z,18.30
2022-12-15T16:54:24.707Z,18.30
2022-12-15T16:57:29.832Z,18.20
2022-12-15T17:00:34.698Z,18.10
2022-12-15T17:03:37.180Z,18.00
2022-12-15T17:06:39.518Z,18.00
2022-12-15T17:09:42.071Z,17.90
2022-12-15T17:12:44.775Z,18.40
2022-12-15T17:15:47.470Z,17.90
2022-12-15T17:18:50.501Z,17.70
2022-12-15T17:21:53.923Z,17.70
2022-12-15T17:24:55.862Z,17.70
2022-12-15T17:27:58.292Z,17.50
2022-12-15T17:31:00.548Z,17.60
2022-12-15T17:34:22.914Z,17.40
2022-12-15T17:37:28.033Z,17.00
2022-12-15T17:40:33.439Z,17.20
2022-12-15T17:43:36.183Z,17.10
2022-12-15T17:46:38.987Z,16.50
2022-12-15T17:49:41.514Z,16.80
2022-12-15T17:52:47.623Z,16.40
2022-12-15T17:55:53.208Z,16.70
2022-12-15T17:58:58.578Z,16.40
2022-12-15T18:02:00.605Z,16.30
2022-12-15T18:05:02.899Z,16.70
2022-12-15T18:08:20.481Z,16.70
2022-12-15T18:11:22.658Z,16.00
2022-12-15T18:14:24.579Z,16.20
2022-12-15T18:17:26.894Z,16.50
2022-12-15T18:20:31.058Z,17.00
2022-12-15T18:23:33.733Z,16.20
2022-12-15T18:26:38.034Z,15.70
2022-12-15T18:29:40.248Z,16.30
2022-12-15T18:32:43.010Z,15.50
2022-12-15T18:35:47.277Z,15.50
2022-12-15T18:38:49.313Z,16.20
2022-12-15T18:41:54.631Z,16.50
2022-12-15T18:45:00.322Z,16.50
2022-12-15T18:48:02.569Z,16.50
2022-12-15T18:51:20.319Z,16.20
2022-12-15T18:54:24.352Z,16.60
2022-12-15T18:57:26.654Z,16.60
2022-12-15T19:00:30.347Z,16.00
2022-12-15T19:03:33.799Z,16.30
2022-12-15T19:06:36.875Z,15.60
2022-12-15T19:09:39.291Z,15.50
2022-12-15T19:12:41.762Z,15.80
2022-12-15T19:15:43.738Z,16.00
2022-12-15T19:19:04.522Z,16.10
2022-12-15T19:22:29.927Z,16.70
2022-12-15T19:25:33.665Z,17.20
2022-12-15T19:28:35.959Z,17.00
2022-12-15T19:31:38.196Z,16.60
2022-12-15T19:34:40.297Z,15.80
2022-12-15T19:37:44.574Z,15.50
2022-12-15T19:40:47.642Z,15.50
2022-12-15T19:43:52.092Z,15.50
2022-12-15T19:46:54.179Z,15.20
2022-12-15T19:49:56.399Z,16.00
2022-12-15T19:53:01.659Z,15.70
2022-12-15T19:56:09.553Z,15.90
2022-12-15T19:59:26.752Z,16.10
2022-12-15T20:02:29.171Z,16.50
2022-12-15T20:05:31.392Z,15.70
2022-12-15T20:08:36.642Z,15.80
2022-12-15T20:11:38.856Z,15.90
2022-12-15T20:14:40.986Z,15.80
2022-12-15T20:17:42.915Z,15.20
2022-12-15T20:20:47.578Z,15.50
2022-12-15T20:24:02.410Z,15.80
2022-12-15T20:27:13.965Z,16.10
2022-12-15T20:30:27.777Z,15.70
2022-12-15T20:33:45.330Z,16.10
2022-12-15T20:36:47.520Z,16.00
2022-12-15T20:39:55.518Z,15.70
2022-12-15T20:42:59.574Z,15.40
2022-12-15T20:46:08.670Z,15.50
2022-12-15T20:49:17.525Z,15.70
2022-12-15T20:52:25.565Z,15.40
2022-12-15T20:55:27.970Z,15.60
2022-12-15T20:58:33.243Z,15.10
2022-12-15T21:01:36.809Z,15.00
2022-12-15T21:04:39.116Z,15.10
2022-12-15T21:07:42.398Z,15.00
2022-12-15T21:10:45.057Z,14.50
2022-12-15T21:13:53.020Z,14.60
2022-12-15T21:17:02.786Z,14.70
2022-12-15T21:20:05.355Z,14.80
2022-12-15T21:23:39.723Z,15.10
2022-12-15T21:26:45.064Z,14.60
2022-12-15T21:29:52.298Z,14.70
2022-12-15T21:32:57.371Z,14.70
2022-12-15T21:36:03.238Z,15.00
2022-12-15T21:39:06.827Z,14.60
2022-12-15T21:42:16.784Z,14.70
2022-12-15T21:45:27.826Z,16.10
2022-12-15T21:48:48.835Z,15.50
2022-12-15T21:52:04.052Z,15.80
2022-12-15T21:55:21.304Z,16.80
2022-12-15T21:58:27.446Z,17.10
2022-12-15T22:01:31.346Z,17.70
2022-12-15T22:04:35.069Z,17.70
2022-12-15T22:07:37.294Z,16.90
2022-12-15T22:10:39.415Z,17.10
2022-12-15T22:13:42.092Z,16.80
2022-12-15T22:16:45.144Z,15.40
2022-12-15T22:19:47.728Z,15.50
2022-12-15T22:22:50.306Z,15.20
2022-12-15T22:25:56.245Z,15.60
2022-12-15T22:29:01.387Z,15.60
2022-12-15T22:32:12.824Z,15.50
2022-12-15T22:35:15.557Z,15.00
2022-12-15T22:38:22.917Z,14.90
2022-12-15T22:41:24.868Z,14.80
2022-12-15T22:44:32.413Z,14.80
2022-12-15T22:47:37.373Z,15.10
2022-12-15T22:50:56.432Z,15.50
2022-12-15T22:54:00.949Z,14.90
2022-12-15T22:57:05.990Z,15.00
2022-12-15T23:00:11.028Z,14.70
2022-12-15T23:03:14.465Z,14.90
2022-12-15T23:06:16.338Z,14.60
2022-12-15T23:09:18.579Z,15.30
2022-12-15T23:12:20.502Z,14.90
2022-12-15T23:15:43.137Z,14.70
2022-12-15T23:18:45.638Z,14.90
2022-12-15T23:21:47.797Z,15.20
2022-12-15T23:24:49.666Z,15.40
2022-12-15T23:27:51.869Z,15.30
2022-12-15T23:30:55.397Z,15.60
2022-12-15T23:33:57.647Z,15.10
2022-12-15T23:36:59.671Z,14.40
2022-12-15T23:40:02.258Z,14.50
2022-12-15T23:43:04.460Z,14.40
2022-12-15T23:46:07.178Z,14.80
2022-12-15T23:49:10.342Z,14.80
2022-12-15T23:52:12.720Z,14.20
2022-12-15T23:55:14.749Z,14.50
2022-12-15T23:58:16.887Z,14.20
